sensor_id;sensor_type;location;lat;lon;timestamp;temperature;humidity
52103;DHT22;38101;53.126;6.878;2022-11-30T00:03:35;7.40;99.90
52103;DHT22;38101;53.126;6.878;2022-11-30T00:06:11;7.40;99.90
52103;DHT22;38101;53.126;6.878;2022-11-30T00:08:37;7.40;99.90
52103;DHT22;38101;53.126;6.878;2022-11-30T00:11:11;7.40;99.90
52103;DHT22;38101;53.126;6.878;2022-11-30T00:13:36;7.40;99.90
52103;DHT22;38101;53.126;6.878;2022-11-30T00:16:02;7.40;99.90
52103;DHT22;38101;53.126;6.878;2022-11-30T00:18:28;7.40;99.90
52103;DHT22;38101;53.126;6.878;2022-11-30T00:20:54;7.40;99.90
52103;DHT22;38101;53.126;6.878;2022-11-30T00:23:23;7.40;99.90
52103;DHT22;38101;53.126;6.878;2022-11-30T00:25:48;7.40;99.90
52103;DHT22;38101;53.126;6.878;2022-11-30T00:28:14;7.40;99.90
52103;DHT22;38101;53.126;6.878;2022-11-30T00:30:40;7.40;99.90
52103;DHT22;38101;53.126;6.878;2022-11-30T00:33:05;7.40;99.90
52103;DHT22;38101;53.126;6.878;2022-11-30T00:35:31;7.40;99.90
52103;DHT22;38101;53.126;6.878;2022-11-30T00:37:56;7.40;99.90
52103;DHT22;38101;53.126;6.878;2022-11-30T00:40:22;7.40;99.90
52103;DHT22;38101;53.126;6.878;2022-11-30T00:42:48;7.40;99.90
52103;DHT22;38101;53.126;6.878;2022-11-30T00:45:13;7.40;99.90
52103;DHT22;38101;53.126;6.878;2022-11-30T00:47:39;7.40;99.90
52103;DHT22;38101;53.126;6.878;2022-11-30T00:50:05;7.40;99.90
52103;DHT22;38101;53.126;6.878;2022-11-30T00:52:31;7.40;99.90
52103;DHT22;38101;53.126;6.878;2022-11-30T00:54:56;7.40;99.90
52103;DHT22;38101;53.126;6.878;2022-11-30T00:57:22;7.40;99.90
52103;DHT22;38101;53.126;6.878;2022-11-30T00:59:48;7.40;99.90
52103;DHT22;38101;53.126;6.878;2022-11-30T01:02:14;7.40;99.90
52103;DHT22;38101;53.126;6.878;2022-11-30T01:04:39;7.40;99.90
52103;DHT22;38101;53.126;6.878;2022-11-30T01:07:05;7.40;99.90
52103;DHT22;38101;53.126;6.878;2022-11-30T01:09:31;7.40;99.90
52103;DHT22;38101;53.126;6.878;2022-11-30T01:11:56;7.40;99.90
52103;DHT22;38101;53.126;6.878;2022-11-30T01:14:22;7.30;99.90
52103;DHT22;38101;53.126;6.878;2022-11-30T01:16:48;7.30;99.90
52103;DHT22;38101;53.126;6.878;2022-11-30T01:19:14;7.40;99.90
52103;DHT22;38101;53.126;6.878;2022-11-30T01:21:39;7.30;99.90
52103;DHT22;38101;53.126;6.878;2022-11-30T01:24:06;7.30;99.90
52103;DHT22;38101;53.126;6.878;2022-11-30T01:26:31;7.30;99.90
52103;DHT22;38101;53.126;6.878;2022-11-30T01:28:57;7.30;99.90
52103;DHT22;38101;53.126;6.878;2022-11-30T01:31:23;7.30;99.90
52103;DHT22;38101;53.126;6.878;2022-11-30T01:33:53;7.30;99.90
52103;DHT22;38101;53.126;6.878;2022-11-30T01:36:22;7.30;99.90
52103;DHT22;38101;53.126;6.878;2022-11-30T01:38:52;7.30;99.90
52103;DHT22;38101;53.126;6.878;2022-11-30T01:41:21;7.30;99.90
52103;DHT22;38101;53.126;6.878;2022-11-30T01:46:28;7.40;99.90
52103;DHT22;38101;53.126;6.878;2022-11-30T01:49:09;7.20;99.90
52103;DHT22;38101;53.126;6.878;2022-11-30T01:51:50;7.30;99.90
52103;DHT22;38101;53.126;6.878;2022-11-30T01:54:21;7.20;99.90
52103;DHT22;38101;53.126;6.878;2022-11-30T01:56:52;7.20;99.90
52103;DHT22;38101;53.126;6.878;2022-11-30T01:59:21;7.20;99.90
52103;DHT22;38101;53.126;6.878;2022-11-30T02:01:47;7.20;99.90
52103;DHT22;38101;53.126;6.878;2022-11-30T02:04:34;7.20;99.90
52103;DHT22;38101;53.126;6.878;2022-11-30T02:07:03;7.20;99.90
52103;DHT22;38101;53.126;6.878;2022-11-30T02:09:30;7.20;99.90
52103;DHT22;38101;53.126;6.878;2022-11-30T02:11:59;7.20;99.90
52103;DHT22;38101;53.126;6.878;2022-11-30T02:14:58;7.20;99.90
52103;DHT22;38101;53.126;6.878;2022-11-30T02:17:34;7.20;99.90
52103;DHT22;38101;53.126;6.878;2022-11-30T02:23:12;7.10;99.90
52103;DHT22;38101;53.126;6.878;2022-11-30T02:29:13;7.10;99.90
52103;DHT22;38101;53.126;6.878;2022-11-30T02:31:22;7.20;99.90
52103;DHT22;38101;53.126;6.878;2022-11-30T02:33:50;7.20;99.90
52103;DHT22;38101;53.126;6.878;2022-11-30T02:36:17;7.10;99.90
52103;DHT22;38101;53.126;6.878;2022-11-30T02:38:43;7.10;99.90
52103;DHT22;38101;53.126;6.878;2022-11-30T02:41:10;7.20;99.90
52103;DHT22;38101;53.126;6.878;2022-11-30T02:43:36;7.10;99.90
52103;DHT22;38101;53.126;6.878;2022-11-30T02:46:15;7.10;99.90
52103;DHT22;38101;53.126;6.878;2022-11-30T02:48:55;7.20;99.90
52103;DHT22;38101;53.126;6.878;2022-11-30T02:51:25;7.20;99.90
52103;DHT22;38101;53.126;6.878;2022-11-30T02:53:51;7.20;99.90
52103;DHT22;38101;53.126;6.878;2022-11-30T02:56:18;7.10;99.90
52103;DHT22;38101;53.126;6.878;2022-11-30T02:58:45;7.10;99.90
52103;DHT22;38101;53.126;6.878;2022-11-30T03:01:11;7.10;99.90
52103;DHT22;38101;53.126;6.878;2022-11-30T03:03:36;7.10;99.90
52103;DHT22;38101;53.126;6.878;2022-11-30T03:06:02;7.10;99.90
52103;DHT22;38101;53.126;6.878;2022-11-30T03:08:28;7.10;99.90
52103;DHT22;38101;53.126;6.878;2022-11-30T03:10:53;7.10;99.90
52103;DHT22;38101;53.126;6.878;2022-11-30T03:13:19;7.10;99.90
52103;DHT22;38101;53.126;6.878;2022-11-30T03:15:44;7.10;99.90
52103;DHT22;38101;53.126;6.878;2022-11-30T03:18:10;7.20;99.90
52103;DHT22;38101;53.126;6.878;2022-11-30T03:20:40;7.10;99.90
52103;DHT22;38101;53.126;6.878;2022-11-30T03:23:07;7.10;99.90
52103;DHT22;38101;53.126;6.878;2022-11-30T03:25:32;7.10;99.90
52103;DHT22;38101;53.126;6.878;2022-11-30T03:28:00;7.10;99.90
52103;DHT22;38101;53.126;6.878;2022-11-30T03:30:26;7.10;99.90
52103;DHT22;38101;53.126;6.878;2022-11-30T03:32:52;7.10;99.90
52103;DHT22;38101;53.126;6.878;2022-11-30T03:35:18;7.10;99.90
52103;DHT22;38101;53.126;6.878;2022-11-30T03:37:44;7.10;99.90
52103;DHT22;38101;53.126;6.878;2022-11-30T03:40:10;7.10;99.90
52103;DHT22;38101;53.126;6.878;2022-11-30T03:42:36;7.20;99.90
52103;DHT22;38101;53.126;6.878;2022-11-30T03:45:02;7.20;99.90
52103;DHT22;38101;53.126;6.878;2022-11-30T03:47:28;7.10;99.90
52103;DHT22;38101;53.126;6.878;2022-11-30T03:49:53;7.20;99.90
52103;DHT22;38101;53.126;6.878;2022-11-30T03:52:19;7.10;99.90
52103;DHT22;38101;53.126;6.878;2022-11-30T03:54:45;7.20;99.90
52103;DHT22;38101;53.126;6.878;2022-11-30T03:57:10;7.10;99.90
52103;DHT22;38101;53.126;6.878;2022-11-30T03:59:36;7.10;99.90
52103;DHT22;38101;53.126;6.878;2022-11-30T04:02:02;7.10;99.90
52103;DHT22;38101;53.126;6.878;2022-11-30T04:04:27;7.20;99.90
52103;DHT22;38101;53.126;6.878;2022-11-30T04:06:53;7.20;99.90
52103;DHT22;38101;53.126;6.878;2022-11-30T04:09:18;7.20;99.90
52103;DHT22;38101;53.126;6.878;2022-11-30T04:11:44;7.10;99.90
52103;DHT22;38101;53.126;6.878;2022-11-30T04:14:10;7.20;99.90
52103;DHT22;38101;53.126;6.878;2022-11-30T04:16:36;7.10;99.90
52103;DHT22;38101;53.126;6.878;2022-11-30T04:19:01;7.10;99.90
52103;DHT22;38101;53.126;6.878;2022-11-30T04:21:27;7.10;99.90
52103;DHT22;38101;53.126;6.878;2022-11-30T04:23:52;7.10;99.90
52103;DHT22;38101;53.126;6.878;2022-11-30T04:26:18;7.10;99.90
52103;DHT22;38101;53.126;6.878;2022-11-30T04:28:44;7.10;99.90
52103;DHT22;38101;53.126;6.878;2022-11-30T04:31:10;7.10;99.90
52103;DHT22;38101;53.126;6.878;2022-11-30T04:33:36;7.00;99.90
52103;DHT22;38101;53.126;6.878;2022-11-30T04:36:03;7.00;99.90
52103;DHT22;38101;53.126;6.878;2022-11-30T04:38:29;7.00;99.90
52103;DHT22;38101;53.126;6.878;2022-11-30T04:40:55;7.00;99.90
52103;DHT22;38101;53.126;6.878;2022-11-30T04:43:22;7.00;99.90
52103;DHT22;38101;53.126;6.878;2022-11-30T04:45:48;7.00;99.90
52103;DHT22;38101;53.126;6.878;2022-11-30T04:48:14;7.00;99.90
52103;DHT22;38101;53.126;6.878;2022-11-30T04:50:40;6.90;99.90
52103;DHT22;38101;53.126;6.878;2022-11-30T04:53:06;7.00;99.90
52103;DHT22;38101;53.126;6.878;2022-11-30T04:55:32;6.90;99.90
52103;DHT22;38101;53.126;6.878;2022-11-30T04:57:58;6.90;99.90
52103;DHT22;38101;53.126;6.878;2022-11-30T05:00:24;7.00;99.90
52103;DHT22;38101;53.126;6.878;2022-11-30T05:02:49;6.90;99.90
52103;DHT22;38101;53.126;6.878;2022-11-30T05:05:15;6.90;99.90
52103;DHT22;38101;53.126;6.878;2022-11-30T05:07:41;6.90;99.90
52103;DHT22;38101;53.126;6.878;2022-11-30T05:10:07;6.90;99.90
52103;DHT22;38101;53.126;6.878;2022-11-30T05:12:33;6.90;99.90
52103;DHT22;38101;53.126;6.878;2022-11-30T05:14:59;6.90;99.90
52103;DHT22;38101;53.126;6.878;2022-11-30T05:17:24;6.90;99.90
52103;DHT22;38101;53.126;6.878;2022-11-30T05:19:50;6.90;99.90
52103;DHT22;38101;53.126;6.878;2022-11-30T05:22:16;6.90;99.90
52103;DHT22;38101;53.126;6.878;2022-11-30T05:24:41;6.90;99.90
52103;DHT22;38101;53.126;6.878;2022-11-30T05:27:07;6.90;99.90
52103;DHT22;38101;53.126;6.878;2022-11-30T05:29:33;6.90;99.90
52103;DHT22;38101;53.126;6.878;2022-11-30T05:32:02;6.90;99.90
52103;DHT22;38101;53.126;6.878;2022-11-30T05:34:27;6.90;99.90
52103;DHT22;38101;53.126;6.878;2022-11-30T05:36:53;6.90;99.90
52103;DHT22;38101;53.126;6.878;2022-11-30T05:39:19;6.90;99.90
52103;DHT22;38101;53.126;6.878;2022-11-30T05:41:44;6.90;99.90
52103;DHT22;38101;53.126;6.878;2022-11-30T05:44:10;6.90;99.90
52103;DHT22;38101;53.126;6.878;2022-11-30T05:46:37;6.90;99.90
52103;DHT22;38101;53.126;6.878;2022-11-30T05:49:03;6.90;99.90
52103;DHT22;38101;53.126;6.878;2022-11-30T05:51:29;6.90;99.90
52103;DHT22;38101;53.126;6.878;2022-11-30T05:53:54;6.90;99.90
52103;DHT22;38101;53.126;6.878;2022-11-30T05:56:21;6.90;99.90
52103;DHT22;38101;53.126;6.878;2022-11-30T05:58:47;6.90;99.90
52103;DHT22;38101;53.126;6.878;2022-11-30T06:01:24;6.90;99.90
52103;DHT22;38101;53.126;6.878;2022-11-30T06:03:50;6.90;99.90
52103;DHT22;38101;53.126;6.878;2022-11-30T06:06:17;6.90;99.90
52103;DHT22;38101;53.126;6.878;2022-11-30T06:08:44;6.90;99.90
52103;DHT22;38101;53.126;6.878;2022-11-30T06:11:10;6.90;99.90
52103;DHT22;38101;53.126;6.878;2022-11-30T06:13:36;6.90;99.90
52103;DHT22;38101;53.126;6.878;2022-11-30T06:16:02;6.90;99.90
52103;DHT22;38101;53.126;6.878;2022-11-30T06:18:29;6.90;99.90
52103;DHT22;38101;53.126;6.878;2022-11-30T06:21:01;6.90;99.90
52103;DHT22;38101;53.126;6.878;2022-11-30T06:23:28;6.90;99.90
52103;DHT22;38101;53.126;6.878;2022-11-30T06:25:54;6.90;99.90
52103;DHT22;38101;53.126;6.878;2022-11-30T06:28:20;6.90;99.90
52103;DHT22;38101;53.126;6.878;2022-11-30T06:30:45;6.90;99.90
52103;DHT22;38101;53.126;6.878;2022-11-30T06:33:11;6.90;99.90
52103;DHT22;38101;53.126;6.878;2022-11-30T06:35:43;6.90;99.90
52103;DHT22;38101;53.126;6.878;2022-11-30T06:38:09;6.90;99.90
52103;DHT22;38101;53.126;6.878;2022-11-30T06:40:35;6.80;99.90
52103;DHT22;38101;53.126;6.878;2022-11-30T06:43:01;6.80;99.90
52103;DHT22;38101;53.126;6.878;2022-11-30T06:45:26;6.80;99.90
52103;DHT22;38101;53.126;6.878;2022-11-30T06:47:55;6.90;99.90
52103;DHT22;38101;53.126;6.878;2022-11-30T06:50:21;6.80;99.90
52103;DHT22;38101;53.126;6.878;2022-11-30T06:52:47;6.80;99.90
52103;DHT22;38101;53.126;6.878;2022-11-30T06:55:12;6.80;99.90
52103;DHT22;38101;53.126;6.878;2022-11-30T06:57:38;6.80;99.90
52103;DHT22;38101;53.126;6.878;2022-11-30T07:00:04;6.80;99.90
52103;DHT22;38101;53.126;6.878;2022-11-30T07:02:30;6.80;99.90
52103;DHT22;38101;53.126;6.878;2022-11-30T07:04:56;6.80;99.90
52103;DHT22;38101;53.126;6.878;2022-11-30T07:07:22;6.80;99.90
52103;DHT22;38101;53.126;6.878;2022-11-30T07:09:48;6.70;99.90
52103;DHT22;38101;53.126;6.878;2022-11-30T07:12:14;6.80;99.90
52103;DHT22;38101;53.126;6.878;2022-11-30T07:14:40;6.70;99.90
52103;DHT22;38101;53.126;6.878;2022-11-30T07:17:05;6.70;99.90
52103;DHT22;38101;53.126;6.878;2022-11-30T07:19:31;6.70;99.90
52103;DHT22;38101;53.126;6.878;2022-11-30T07:22:00;6.80;99.90
52103;DHT22;38101;53.126;6.878;2022-11-30T07:24:25;6.70;99.90
52103;DHT22;38101;53.126;6.878;2022-11-30T07:27:09;6.70;99.90
52103;DHT22;38101;53.126;6.878;2022-11-30T07:29:35;6.70;99.90
52103;DHT22;38101;53.126;6.878;2022-11-30T07:32:01;6.60;99.90
52103;DHT22;38101;53.126;6.878;2022-11-30T07:34:26;6.70;99.90
52103;DHT22;38101;53.126;6.878;2022-11-30T07:36:52;6.70;99.90
52103;DHT22;38101;53.126;6.878;2022-11-30T07:39:18;6.70;99.90
52103;DHT22;38101;53.126;6.878;2022-11-30T07:41:43;6.70;99.90
52103;DHT22;38101;53.126;6.878;2022-11-30T07:44:09;6.80;99.90
52103;DHT22;38101;53.126;6.878;2022-11-30T07:46:37;6.80;99.90
52103;DHT22;38101;53.126;6.878;2022-11-30T07:49:04;6.70;99.90
52103;DHT22;38101;53.126;6.878;2022-11-30T07:51:30;6.70;99.90
52103;DHT22;38101;53.126;6.878;2022-11-30T07:53:57;6.80;99.90
52103;DHT22;38101;53.126;6.878;2022-11-30T07:56:23;6.80;99.90
52103;DHT22;38101;53.126;6.878;2022-11-30T07:58:52;6.80;99.90
52103;DHT22;38101;53.126;6.878;2022-11-30T08:01:20;6.80;99.90
52103;DHT22;38101;53.126;6.878;2022-11-30T08:03:47;6.70;99.90
52103;DHT22;38101;53.126;6.878;2022-11-30T08:06:14;6.80;99.90
52103;DHT22;38101;53.126;6.878;2022-11-30T08:08:44;6.80;99.90
52103;DHT22;38101;53.126;6.878;2022-11-30T08:11:12;6.70;99.90
52103;DHT22;38101;53.126;6.878;2022-11-30T08:13:38;6.80;99.90
52103;DHT22;38101;53.126;6.878;2022-11-30T08:16:12;6.70;99.90
52103;DHT22;38101;53.126;6.878;2022-11-30T08:18:40;6.70;99.90
52103;DHT22;38101;53.126;6.878;2022-11-30T08:21:08;6.80;99.90
52103;DHT22;38101;53.126;6.878;2022-11-30T08:23:36;6.80;99.90
52103;DHT22;38101;53.126;6.878;2022-11-30T08:28:35;6.70;99.90
52103;DHT22;38101;53.126;6.878;2022-11-30T08:31:06;6.70;99.90
52103;DHT22;38101;53.126;6.878;2022-11-30T08:33:33;6.70;99.90
52103;DHT22;38101;53.126;6.878;2022-11-30T08:36:14;6.80;99.90
52103;DHT22;38101;53.126;6.878;2022-11-30T08:38:41;6.80;99.90
52103;DHT22;38101;53.126;6.878;2022-11-30T08:41:09;6.80;99.90
52103;DHT22;38101;53.126;6.878;2022-11-30T08:43:35;6.80;99.90
52103;DHT22;38101;53.126;6.878;2022-11-30T08:46:02;6.80;99.90
52103;DHT22;38101;53.126;6.878;2022-11-30T08:48:28;6.80;99.90
52103;DHT22;38101;53.126;6.878;2022-11-30T08:50:58;6.80;99.90
52103;DHT22;38101;53.126;6.878;2022-11-30T08:53:24;6.80;99.90
52103;DHT22;38101;53.126;6.878;2022-11-30T08:55:58;6.80;99.90
52103;DHT22;38101;53.126;6.878;2022-11-30T08:58:25;6.80;99.90
52103;DHT22;38101;53.126;6.878;2022-11-30T09:00:51;6.80;99.90
52103;DHT22;38101;53.126;6.878;2022-11-30T09:03:17;6.80;99.90
52103;DHT22;38101;53.126;6.878;2022-11-30T09:05:42;6.80;99.90
52103;DHT22;38101;53.126;6.878;2022-11-30T09:08:08;6.90;99.90
52103;DHT22;38101;53.126;6.878;2022-11-30T09:10:34;6.80;99.90
52103;DHT22;38101;53.126;6.878;2022-11-30T09:12:59;6.80;99.90
52103;DHT22;38101;53.126;6.878;2022-11-30T09:15:25;6.80;99.90
52103;DHT22;38101;53.126;6.878;2022-11-30T09:17:51;6.80;99.90
52103;DHT22;38101;53.126;6.878;2022-11-30T09:20:16;6.90;99.90
52103;DHT22;38101;53.126;6.878;2022-11-30T09:22:42;6.80;99.90
52103;DHT22;38101;53.126;6.878;2022-11-30T09:25:09;6.80;99.90
52103;DHT22;38101;53.126;6.878;2022-11-30T09:27:34;6.80;99.90
52103;DHT22;38101;53.126;6.878;2022-11-30T09:30:00;6.80;99.90
52103;DHT22;38101;53.126;6.878;2022-11-30T09:32:27;6.80;99.90
52103;DHT22;38101;53.126;6.878;2022-11-30T09:34:53;6.90;99.90
52103;DHT22;38101;53.126;6.878;2022-11-30T09:37:19;6.90;99.90
52103;DHT22;38101;53.126;6.878;2022-11-30T09:39:44;6.90;99.90
52103;DHT22;38101;53.126;6.878;2022-11-30T09:45:24;6.90;99.90
52103;DHT22;38101;53.126;6.878;2022-11-30T09:50:33;6.90;99.90
52103;DHT22;38101;53.126;6.878;2022-11-30T09:53:09;6.90;99.90
52103;DHT22;38101;53.126;6.878;2022-11-30T09:55:39;6.90;99.90
52103;DHT22;38101;53.126;6.878;2022-11-30T09:58:06;7.00;99.90
52103;DHT22;38101;53.126;6.878;2022-11-30T10:00:33;6.90;99.90
52103;DHT22;38101;53.126;6.878;2022-11-30T10:03:02;6.90;99.90
52103;DHT22;38101;53.126;6.878;2022-11-30T10:05:40;7.00;99.90
52103;DHT22;38101;53.126;6.878;2022-11-30T10:08:23;7.00;99.90
52103;DHT22;38101;53.126;6.878;2022-11-30T10:13:24;7.00;99.90
52103;DHT22;38101;53.126;6.878;2022-11-30T10:18:55;7.00;99.90
52103;DHT22;38101;53.126;6.878;2022-11-30T10:27:17;7.00;99.90
52103;DHT22;38101;53.126;6.878;2022-11-30T10:29:52;7.00;99.90
52103;DHT22;38101;53.126;6.878;2022-11-30T10:32:21;7.00;99.90
52103;DHT22;38101;53.126;6.878;2022-11-30T10:34:54;7.00;99.90
52103;DHT22;38101;53.126;6.878;2022-11-30T10:37:31;7.00;99.90
52103;DHT22;38101;53.126;6.878;2022-11-30T10:42:47;7.00;99.90
52103;DHT22;38101;53.126;6.878;2022-11-30T10:45:22;7.00;99.90
52103;DHT22;38101;53.126;6.878;2022-11-30T10:50:24;7.00;99.90
52103;DHT22;38101;53.126;6.878;2022-11-30T10:52:53;7.00;99.90
52103;DHT22;38101;53.126;6.878;2022-11-30T10:55:23;7.00;99.90
52103;DHT22;38101;53.126;6.878;2022-11-30T10:57:57;7.00;99.90
52103;DHT22;38101;53.126;6.878;2022-11-30T11:00:24;7.00;99.90
52103;DHT22;38101;53.126;6.878;2022-11-30T11:02:50;7.00;99.90
52103;DHT22;38101;53.126;6.878;2022-11-30T11:08:02;7.00;99.90
52103;DHT22;38101;53.126;6.878;2022-11-30T11:10:42;7.00;99.90
52103;DHT22;38101;53.126;6.878;2022-11-30T11:16:03;7.00;99.90
52103;DHT22;38101;53.126;6.878;2022-11-30T11:18:31;7.10;99.90
52103;DHT22;38101;53.126;6.878;2022-11-30T11:21:19;7.00;99.90
52103;DHT22;38101;53.126;6.878;2022-11-30T11:23:46;7.00;99.90
52103;DHT22;38101;53.126;6.878;2022-11-30T11:26:25;7.10;99.90
52103;DHT22;38101;53.126;6.878;2022-11-30T11:28:53;7.00;99.90
52103;DHT22;38101;53.126;6.878;2022-11-30T11:31:43;7.00;99.90
52103;DHT22;38101;53.126;6.878;2022-11-30T11:34:26;7.00;99.90
52103;DHT22;38101;53.126;6.878;2022-11-30T11:42:44;6.90;99.90
52103;DHT22;38101;53.126;6.878;2022-11-30T11:47:46;7.00;99.90
52103;DHT22;38101;53.126;6.878;2022-11-30T11:50:26;7.00;99.90
52103;DHT22;38101;53.126;6.878;2022-11-30T11:56:29;7.00;99.90
52103;DHT22;38101;53.126;6.878;2022-11-30T12:01:49;7.00;99.90
52103;DHT22;38101;53.126;6.878;2022-11-30T12:06:41;6.90;99.90
52103;DHT22;38101;53.126;6.878;2022-11-30T12:09:17;6.90;99.90
52103;DHT22;38101;53.126;6.878;2022-11-30T12:11:47;6.90;99.90
52103;DHT22;38101;53.126;6.878;2022-11-30T12:14:15;6.90;99.90
52103;DHT22;38101;53.126;6.878;2022-11-30T12:17:02;6.90;99.90
52103;DHT22;38101;53.126;6.878;2022-11-30T12:19:56;6.90;99.90
52103;DHT22;38101;53.126;6.878;2022-11-30T12:25:23;6.90;99.90
52103;DHT22;38101;53.126;6.878;2022-11-30T12:34:31;6.90;99.90
52103;DHT22;38101;53.126;6.878;2022-11-30T12:41:49;7.00;99.90
52103;DHT22;38101;53.126;6.878;2022-11-30T12:50:18;7.00;99.90
52103;DHT22;38101;53.126;6.878;2022-11-30T12:55:46;7.00;99.90
52103;DHT22;38101;53.126;6.878;2022-11-30T13:06:47;7.00;99.90
52103;DHT22;38101;53.126;6.878;2022-11-30T13:09:55;7.00;99.90
52103;DHT22;38101;53.126;6.878;2022-11-30T13:12:34;7.00;99.90
52103;DHT22;38101;53.126;6.878;2022-11-30T13:17:50;6.90;99.90
52103;DHT22;38101;53.126;6.878;2022-11-30T13:23:05;6.90;99.90
52103;DHT22;38101;53.126;6.878;2022-11-30T13:25:41;6.90;99.90
52103;DHT22;38101;53.126;6.878;2022-11-30T13:28:31;7.00;99.90
52103;DHT22;38101;53.126;6.878;2022-11-30T13:36:37;7.00;99.90
52103;DHT22;38101;53.126;6.878;2022-11-30T13:39:07;6.90;99.90
52103;DHT22;38101;53.126;6.878;2022-11-30T13:41:34;6.90;99.90
52103;DHT22;38101;53.126;6.878;2022-11-30T13:44:01;7.00;99.90
52103;DHT22;38101;53.126;6.878;2022-11-30T13:46:27;6.90;99.90
52103;DHT22;38101;53.126;6.878;2022-11-30T13:49:21;6.90;99.90
52103;DHT22;38101;53.126;6.878;2022-11-30T13:51:47;6.90;99.90
52103;DHT22;38101;53.126;6.878;2022-11-30T13:59:50;6.90;99.90
52103;DHT22;38101;53.126;6.878;2022-11-30T14:10:41;6.90;99.90
52103;DHT22;38101;53.126;6.878;2022-11-30T14:18:26;6.90;99.90
52103;DHT22;38101;53.126;6.878;2022-11-30T14:21:02;6.90;99.90
52103;DHT22;38101;53.126;6.878;2022-11-30T14:26:09;6.90;99.90
52103;DHT22;38101;53.126;6.878;2022-11-30T14:31:11;6.90;99.90
52103;DHT22;38101;53.126;6.878;2022-11-30T14:33:48;6.90;99.90
52103;DHT22;38101;53.126;6.878;2022-11-30T14:36:15;6.90;99.90
52103;DHT22;38101;53.126;6.878;2022-11-30T14:38:42;6.90;99.90
52103;DHT22;38101;53.126;6.878;2022-11-30T14:41:26;6.90;99.90
52103;DHT22;38101;53.126;6.878;2022-11-30T14:44:12;6.90;99.90
52103;DHT22;38101;53.126;6.878;2022-11-30T14:46:39;6.90;99.90
52103;DHT22;38101;53.126;6.878;2022-11-30T14:49:16;6.90;99.90
52103;DHT22;38101;53.126;6.878;2022-11-30T14:51:48;6.90;99.90
52103;DHT22;38101;53.126;6.878;2022-11-30T14:56:50;6.90;99.90
52103;DHT22;38101;53.126;6.878;2022-11-30T15:02:05;6.90;99.90
52103;DHT22;38101;53.126;6.878;2022-11-30T15:04:34;6.80;99.90
52103;DHT22;38101;53.126;6.878;2022-11-30T15:07:00;6.80;99.90
52103;DHT22;38101;53.126;6.878;2022-11-30T15:09:29;6.90;99.90
52103;DHT22;38101;53.126;6.878;2022-11-30T15:11:57;6.80;99.90
52103;DHT22;38101;53.126;6.878;2022-11-30T15:14:23;6.80;99.90
52103;DHT22;38101;53.126;6.878;2022-11-30T15:16:51;6.80;99.90
52103;DHT22;38101;53.126;6.878;2022-11-30T15:19:24;6.90;99.90
52103;DHT22;38101;53.126;6.878;2022-11-30T15:21:51;6.80;99.90
52103;DHT22;38101;53.126;6.878;2022-11-30T15:24:17;6.80;99.90
52103;DHT22;38101;53.126;6.878;2022-11-30T15:26:54;6.80;99.90
52103;DHT22;38101;53.126;6.878;2022-11-30T15:29:27;6.80;99.90
52103;DHT22;38101;53.126;6.878;2022-11-30T15:31:56;6.80;99.90
52103;DHT22;38101;53.126;6.878;2022-11-30T15:36:59;6.80;99.90
52103;DHT22;38101;53.126;6.878;2022-11-30T15:39:26;6.80;99.90
52103;DHT22;38101;53.126;6.878;2022-11-30T15:42:01;6.80;99.90
52103;DHT22;38101;53.126;6.878;2022-11-30T15:44:39;6.80;99.90
52103;DHT22;38101;53.126;6.878;2022-11-30T15:47:34;6.80;99.90
52103;DHT22;38101;53.126;6.878;2022-11-30T15:50:00;6.80;99.90
52103;DHT22;38101;53.126;6.878;2022-11-30T15:52:29;6.80;99.90
52103;DHT22;38101;53.126;6.878;2022-11-30T15:54:58;6.80;99.90
52103;DHT22;38101;53.126;6.878;2022-11-30T15:58:00;6.80;99.90
52103;DHT22;38101;53.126;6.878;2022-11-30T16:00:26;6.80;99.90
52103;DHT22;38101;53.126;6.878;2022-11-30T16:03:10;6.80;99.90
52103;DHT22;38101;53.126;6.878;2022-11-30T16:05:38;6.80;99.90
52103;DHT22;38101;53.126;6.878;2022-11-30T16:08:13;6.80;99.90
52103;DHT22;38101;53.126;6.878;2022-11-30T16:10:39;6.80;99.90
52103;DHT22;38101;53.126;6.878;2022-11-30T16:13:06;6.80;99.90
52103;DHT22;38101;53.126;6.878;2022-11-30T16:15:35;6.80;99.90
52103;DHT22;38101;53.126;6.878;2022-11-30T16:18:10;6.80;99.90
52103;DHT22;38101;53.126;6.878;2022-11-30T16:20:38;6.80;99.90
52103;DHT22;38101;53.126;6.878;2022-11-30T16:23:05;6.80;99.90
52103;DHT22;38101;53.126;6.878;2022-11-30T16:25:30;6.80;99.90
52103;DHT22;38101;53.126;6.878;2022-11-30T16:27:56;6.80;99.90
52103;DHT22;38101;53.126;6.878;2022-11-30T16:30:22;6.80;99.90
52103;DHT22;38101;53.126;6.878;2022-11-30T16:32:48;6.80;99.90
52103;DHT22;38101;53.126;6.878;2022-11-30T16:35:23;6.80;99.90
52103;DHT22;38101;53.126;6.878;2022-11-30T16:37:49;6.80;99.90
52103;DHT22;38101;53.126;6.878;2022-11-30T16:40:16;6.70;99.90
52103;DHT22;38101;53.126;6.878;2022-11-30T16:42:42;6.80;99.90
52103;DHT22;38101;53.126;6.878;2022-11-30T16:45:17;6.70;99.90
52103;DHT22;38101;53.126;6.878;2022-11-30T16:47:43;6.70;99.90
52103;DHT22;38101;53.126;6.878;2022-11-30T16:50:11;6.60;99.90
52103;DHT22;38101;53.126;6.878;2022-11-30T16:52:37;6.70;99.90
52103;DHT22;38101;53.126;6.878;2022-11-30T16:55:12;6.70;99.90
52103;DHT22;38101;53.126;6.878;2022-11-30T16:57:39;6.70;99.90
52103;DHT22;38101;53.126;6.878;2022-11-30T17:00:05;6.70;99.90
52103;DHT22;38101;53.126;6.878;2022-11-30T17:02:31;6.70;99.90
52103;DHT22;38101;53.126;6.878;2022-11-30T17:04:58;6.70;99.90
52103;DHT22;38101;53.126;6.878;2022-11-30T17:07:24;6.70;99.90
52103;DHT22;38101;53.126;6.878;2022-11-30T17:09:50;6.70;99.90
52103;DHT22;38101;53.126;6.878;2022-11-30T17:12:15;6.70;99.90
52103;DHT22;38101;53.126;6.878;2022-11-30T17:14:41;6.70;99.90
52103;DHT22;38101;53.126;6.878;2022-11-30T17:17:07;6.70;99.90
52103;DHT22;38101;53.126;6.878;2022-11-30T17:19:33;6.70;99.90
52103;DHT22;38101;53.126;6.878;2022-11-30T17:21:58;6.70;99.90
52103;DHT22;38101;53.126;6.878;2022-11-30T17:24:24;6.70;99.90
52103;DHT22;38101;53.126;6.878;2022-11-30T17:26:50;6.70;99.90
52103;DHT22;38101;53.126;6.878;2022-11-30T17:29:15;6.70;99.90
52103;DHT22;38101;53.126;6.878;2022-11-30T17:31:41;6.60;99.90
52103;DHT22;38101;53.126;6.878;2022-11-30T17:34:07;6.60;99.90
52103;DHT22;38101;53.126;6.878;2022-11-30T17:36:33;6.60;99.90
52103;DHT22;38101;53.126;6.878;2022-11-30T17:39:03;6.60;99.90
52103;DHT22;38101;53.126;6.878;2022-11-30T17:41:29;6.60;99.90
52103;DHT22;38101;53.126;6.878;2022-11-30T17:43:55;6.60;99.90
52103;DHT22;38101;53.126;6.878;2022-11-30T17:46:21;6.60;99.90
52103;DHT22;38101;53.126;6.878;2022-11-30T17:48:47;6.60;99.90
52103;DHT22;38101;53.126;6.878;2022-11-30T17:51:14;6.60;99.90
52103;DHT22;38101;53.126;6.878;2022-11-30T17:53:40;6.60;99.90
52103;DHT22;38101;53.126;6.878;2022-11-30T17:56:08;6.60;99.90
52103;DHT22;38101;53.126;6.878;2022-11-30T17:58:38;6.60;99.90
52103;DHT22;38101;53.126;6.878;2022-11-30T18:01:15;6.60;99.90
52103;DHT22;38101;53.126;6.878;2022-11-30T18:03:41;6.60;99.90
52103;DHT22;38101;53.126;6.878;2022-11-30T18:06:06;6.60;99.90
52103;DHT22;38101;53.126;6.878;2022-11-30T18:08:35;6.60;99.90